Flugwetter

[source: ADDS]
METAR
LOWL 152120Z AUTO VRB01KT 9999 FEW040 BKN042 01/M01 Q1002 NOSIG =
TAF
TAF LOWL 151715Z 1518/1618 24003KT 9999 FEW020 BKN050 TX03/1613Z TN00/1604Z PROB30 TEMPO 1602/1607 VRB01KT 1200 BCFG SCT130 TEMPO 1608/1618 28008KT 6000 -SHSN SCT008 BKN012 =